الصفحة الرئيسية
METAR-TAF:

METAR-TAF

مطار :

مطار مهرآباد الدولي

طهران, إيران

دائرة عرض: 35-41N, خط طول: 051-21E, ارتفاع: 1204 متر

مراقبة الطقس الحالي

تاريخ ووقت الإصدار 22 دقيقة قبل الساعة 00:00UTC
ريح 6 عقدة من الشمال
درجة الحرارة 28°درجة مئوية
الرطوبة 23%
ضغط 1009 hPa
الرؤية 10 كم أو أكثر
الغيوم لا تقل 1500 م ولا وجود لمزنة ركامية السحاب الأسود

METAR: OIII 180000Z 36006KT CAVOK 28/05 Q1009 A2980 NOSIG

زمن: 04:52 (00:22 UTC)

توقعات

تاريخ ووقت الإصدار 1ساعة و 22 دقيقة قبل الساعة 23:00UTC
التوقعات صالحة من18 الساعة 00 UTC إلى 19 الساعة 06 UTC
ريح 8 عقدة من الشرق/الشمال الشرقي
مؤقت
من 18 الساعة 06 UTC إلى 18 الساعة 12 UTC
ريح 12 عقدة من الجنوب الشرقي

TAF: OIII 172300Z 1800/1906 07004MPS NSC TEMPO 1806/1812 13006MPS

أرصاد الطقس والتوقعات من أكثر من 4000 مطار (تقارير الطقس للمطار METAR والتنبؤ بالطقس بالمطارTAF).

المحطات المتاحة هي النقط الصفراء والحمراء على الخريطة.

حرك المؤشر فوق النقطة لمعرفة اسم المحطة.

ثم انقر لمعرفة أرصاد وتوقعات الطقس.

لتغيير الخارطة: اضغط على الأزرار الخضراء مع رمز الصليب الأسود للتكبير. على الزر الأخضر مع شرطة للتصغير، أو على الأسهم الخضراء للخرائط المجاورة.


METAR-TAF: